sensor_id;sensor_type;location;lat;lon;timestamp;temperature;humidity
20795;DHT22;28087;-33.874;151.240;2022-12-10T00:28:39;21.50;99.90
20795;DHT22;28087;-33.874;151.240;2022-12-10T01:52:49;21.60;99.90
20795;DHT22;28087;-33.874;151.240;2022-12-10T01:55:52;21.60;99.90
20795;DHT22;28087;-33.874;151.240;2022-12-10T01:58:29;21.50;99.90
20795;DHT22;28087;-33.874;151.240;2022-12-10T02:19:58;21.10;99.90
20795;DHT22;28087;-33.874;151.240;2022-12-10T02:25:22;21.20;99.90
20795;DHT22;28087;-33.874;151.240;2022-12-10T02:30:43;21.40;99.90
20795;DHT22;28087;-33.874;151.240;2022-12-10T02:57:36;21.50;99.90
20795;DHT22;28087;-33.874;151.240;2022-12-10T03:00:15;21.70;99.90
20795;DHT22;28087;-33.874;151.240;2022-12-10T03:29:33;20.90;99.90
20795;DHT22;28087;-33.874;151.240;2022-12-10T03:40:05;20.90;99.90
20795;DHT22;28087;-33.874;151.240;2022-12-10T03:53:06;21.20;99.90
20795;DHT22;28087;-33.874;151.240;2022-12-10T03:55:43;21.40;99.90
20795;DHT22;28087;-33.874;151.240;2022-12-10T03:58:19;21.60;99.90
20795;DHT22;28087;-33.874;151.240;2022-12-10T04:19:31;21.20;99.90
20795;DHT22;28087;-33.874;151.240;2022-12-10T04:22:10;21.20;99.90
20795;DHT22;28087;-33.874;151.240;2022-12-10T04:25:02;21.30;99.90
20795;DHT22;28087;-33.874;151.240;2022-12-10T04:30:30;21.30;99.90
20795;DHT22;28087;-33.874;151.240;2022-12-10T04:35:44;21.50;99.90
20795;DHT22;28087;-33.874;151.240;2022-12-10T05:51:55;20.50;99.90
20795;DHT22;28087;-33.874;151.240;2022-12-10T05:59:47;20.40;99.90
20795;DHT22;28087;-33.874;151.240;2022-12-10T06:02:23;20.40;99.90
20795;DHT22;28087;-33.874;151.240;2022-12-10T06:04:59;20.40;99.90
20795;DHT22;28087;-33.874;151.240;2022-12-10T06:07:36;20.30;99.90
20795;DHT22;28087;-33.874;151.240;2022-12-10T06:10:13;20.40;99.90
20795;DHT22;28087;-33.874;151.240;2022-12-10T06:12:51;20.20;99.90
20795;DHT22;28087;-33.874;151.240;2022-12-10T06:18:05;20.20;99.90
20795;DHT22;28087;-33.874;151.240;2022-12-10T06:23:19;20.30;99.90
20795;DHT22;28087;-33.874;151.240;2022-12-10T06:25:56;20.30;99.90
20795;DHT22;28087;-33.874;151.240;2022-12-10T06:33:50;20.30;99.90
20795;DHT22;28087;-33.874;151.240;2022-12-10T06:36:27;20.40;99.90
20795;DHT22;28087;-33.874;151.240;2022-12-10T06:39:04;20.50;99.90
20795;DHT22;28087;-33.874;151.240;2022-12-10T06:41:42;20.50;99.90
20795;DHT22;28087;-33.874;151.240;2022-12-10T07:07:43;20.10;99.90
20795;DHT22;28087;-33.874;151.240;2022-12-10T07:10:21;20.10;99.90
20795;DHT22;28087;-33.874;151.240;2022-12-10T07:12:57;20.20;99.90
20795;DHT22;28087;-33.874;151.240;2022-12-10T07:31:25;20.10;99.90
20795;DHT22;28087;-33.874;151.240;2022-12-10T08:18:28;19.90;99.90
20795;DHT22;28087;-33.874;151.240;2022-12-10T08:21:05;19.90;99.90
20795;DHT22;28087;-33.874;151.240;2022-12-10T08:23:42;19.80;99.90
20795;DHT22;28087;-33.874;151.240;2022-12-10T08:47:18;19.70;99.90
20795;DHT22;28087;-33.874;151.240;2022-12-10T08:49:59;19.80;99.90
20795;DHT22;28087;-33.874;151.240;2022-12-10T08:52:39;19.90;99.90
20795;DHT22;28087;-33.874;151.240;2022-12-10T09:39:54;19.60;99.90
20795;DHT22;28087;-33.874;151.240;2022-12-10T09:42:40;19.60;99.90
20795;DHT22;28087;-33.874;151.240;2022-12-10T20:04:07;19.70;99.90
20795;DHT22;28087;-33.874;151.240;2022-12-10T20:06:45;20.00;99.90
20795;DHT22;28087;-33.874;151.240;2022-12-10T20:09:22;20.00;99.90
20795;DHT22;28087;-33.874;151.240;2022-12-10T20:11:58;20.00;99.90
20795;DHT22;28087;-33.874;151.240;2022-12-10T20:14:36;20.00;99.90
20795;DHT22;28087;-33.874;151.240;2022-12-10T20:17:13;20.00;99.90
20795;DHT22;28087;-33.874;151.240;2022-12-10T20:19:52;20.10;99.90
20795;DHT22;28087;-33.874;151.240;2022-12-10T20:22:28;20.10;99.90
20795;DHT22;28087;-33.874;151.240;2022-12-10T20:25:05;20.20;99.90
20795;DHT22;28087;-33.874;151.240;2022-12-10T20:27:42;20.30;99.90
20795;DHT22;28087;-33.874;151.240;2022-12-10T20:30:22;20.40;99.90
20795;DHT22;28087;-33.874;151.240;2022-12-10T20:32:59;20.50;99.90
20795;DHT22;28087;-33.874;151.240;2022-12-10T20:35:56;20.40;99.90
20795;DHT22;28087;-33.874;151.240;2022-12-10T20:38:33;20.50;99.90
20795;DHT22;28087;-33.874;151.240;2022-12-10T20:41:11;20.50;99.90
20795;DHT22;28087;-33.874;151.240;2022-12-10T20:43:47;20.50;99.90
20795;DHT22;28087;-33.874;151.240;2022-12-10T20:46:27;20.60;99.90
20795;DHT22;28087;-33.874;151.240;2022-12-10T20:49:04;20.70;99.90
20795;DHT22;28087;-33.874;151.240;2022-12-10T20:51:42;20.90;99.90
20795;DHT22;28087;-33.874;151.240;2022-12-10T20:54:17;20.80;99.90
20795;DHT22;28087;-33.874;151.240;2022-12-10T20:56:54;20.90;99.90
20795;DHT22;28087;-33.874;151.240;2022-12-10T20:59:32;20.90;99.90
20795;DHT22;28087;-33.874;151.240;2022-12-10T21:02:11;21.00;99.90
20795;DHT22;28087;-33.874;151.240;2022-12-10T21:04:48;21.10;99.90
20795;DHT22;28087;-33.874;151.240;2022-12-10T21:07:24;21.20;99.90
20795;DHT22;28087;-33.874;151.240;2022-12-10T21:10:01;21.30;99.90
20795;DHT22;28087;-33.874;151.240;2022-12-10T21:12:37;21.30;99.90
20795;DHT22;28087;-33.874;151.240;2022-12-10T21:15:14;21.30;99.90
20795;DHT22;28087;-33.874;151.240;2022-12-10T21:17:56;21.40;99.90
20795;DHT22;28087;-33.874;151.240;2022-12-10T21:20:32;21.40;99.90
20795;DHT22;28087;-33.874;151.240;2022-12-10T21:23:10;21.60;99.90
20795;DHT22;28087;-33.874;151.240;2022-12-10T21:25:47;21.70;99.90
20795;DHT22;28087;-33.874;151.240;2022-12-10T21:28:24;21.80;99.90
20795;DHT22;28087;-33.874;151.240;2022-12-10T21:31:01;21.70;99.90
20795;DHT22;28087;-33.874;151.240;2022-12-10T21:33:40;21.70;99.90
20795;DHT22;28087;-33.874;151.240;2022-12-10T21:36:17;21.80;99.90
20795;DHT22;28087;-33.874;151.240;2022-12-10T21:38:54;21.90;99.90
20795;DHT22;28087;-33.874;151.240;2022-12-10T21:41:31;22.00;99.90
20795;DHT22;28087;-33.874;151.240;2022-12-10T21:44:24;22.00;99.90
20795;DHT22;28087;-33.874;151.240;2022-12-10T21:46:59;22.00;99.90
20795;DHT22;28087;-33.874;151.240;2022-12-10T21:49:37;22.00;99.90
20795;DHT22;28087;-33.874;151.240;2022-12-10T21:52:13;22.00;99.90
20795;DHT22;28087;-33.874;151.240;2022-12-10T21:54:50;22.10;99.90
20795;DHT22;28087;-33.874;151.240;2022-12-10T21:57:26;22.20;99.90
20795;DHT22;28087;-33.874;151.240;2022-12-10T22:00:03;22.30;99.90
20795;DHT22;28087;-33.874;151.240;2022-12-10T22:02:44;22.40;99.90
20795;DHT22;28087;-33.874;151.240;2022-12-10T22:05:23;22.40;99.90
20795;DHT22;28087;-33.874;151.240;2022-12-10T22:07:59;22.40;99.90
20795;DHT22;28087;-33.874;151.240;2022-12-10T22:10:36;22.30;99.90
20795;DHT22;28087;-33.874;151.240;2022-12-10T22:13:20;22.30;99.90
20795;DHT22;28087;-33.874;151.240;2022-12-10T22:15:57;22.30;99.90
20795;DHT22;28087;-33.874;151.240;2022-12-10T22:18:35;22.40;99.90
20795;DHT22;28087;-33.874;151.240;2022-12-10T22:21:13;22.30;99.90
20795;DHT22;28087;-33.874;151.240;2022-12-10T22:23:55;22.30;99.90
20795;DHT22;28087;-33.874;151.240;2022-12-10T22:26:32;22.20;99.90
20795;DHT22;28087;-33.874;151.240;2022-12-10T22:29:08;22.10;99.90
20795;DHT22;28087;-33.874;151.240;2022-12-10T22:31:44;22.10;99.90
20795;DHT22;28087;-33.874;151.240;2022-12-10T22:34:21;22.10;99.90
20795;DHT22;28087;-33.874;151.240;2022-12-10T22:36:59;22.10;99.90
20795;DHT22;28087;-33.874;151.240;2022-12-10T22:39:35;22.00;99.90
20795;DHT22;28087;-33.874;151.240;2022-12-10T22:42:12;22.00;99.90
20795;DHT22;28087;-33.874;151.240;2022-12-10T22:44:49;22.10;99.90
20795;DHT22;28087;-33.874;151.240;2022-12-10T23:47:25;22.60;99.90
20795;DHT22;28087;-33.874;151.240;2022-12-10T23:50:02;22.80;99.90
20795;DHT22;28087;-33.874;151.240;2022-12-10T23:52:38;22.80;99.90
20795;DHT22;28087;-33.874;151.240;2022-12-10T23:55:17;22.80;99.90
20795;DHT22;28087;-33.874;151.240;2022-12-10T23:57:53;22.80;99.90
